createdAt,value
2023-04-29T00:01:28.154Z,12.94
2023-04-29T00:04:32.950Z,12.83
2023-04-29T00:07:40.159Z,12.90
2023-04-29T00:10:47.287Z,12.77
2023-04-29T00:13:52.373Z,12.80
2023-04-29T00:16:57.286Z,12.92
2023-04-29T00:20:07.672Z,12.85
2023-04-29T00:23:12.194Z,12.74
2023-04-29T00:26:16.768Z,12.73
2023-04-29T00:29:23.604Z,12.58
2023-04-29T00:32:30.769Z,12.64
2023-04-29T00:35:33.142Z,12.70
2023-04-29T00:38:37.740Z,12.55
2023-04-29T00:41:40.312Z,12.42
2023-04-29T00:44:47.417Z,12.49
2023-04-29T00:47:54.912Z,12.51
2023-04-29T00:50:59.852Z,12.51
2023-04-29T00:54:05.152Z,12.46
2023-04-29T00:57:08.886Z,12.41
2023-04-29T01:00:11.801Z,12.46
2023-04-29T01:03:16.754Z,12.48
2023-04-29T01:06:39.729Z,12.64
2023-04-29T01:10:01.857Z,12.72
2023-04-29T01:13:28.833Z,12.87
2023-04-29T01:16:45.331Z,12.97
2023-04-29T01:19:56.965Z,12.91
2023-04-29T01:23:02.350Z,12.77
2023-04-29T01:26:08.260Z,12.78
2023-04-29T01:29:42.464Z,12.68
2023-04-29T01:33:00.952Z,12.57
2023-04-29T01:36:19.072Z,12.62
2023-04-29T01:39:41.583Z,12.55
2023-04-29T01:42:52.970Z,12.51
2023-04-29T01:45:57.467Z,12.36
2023-04-29T01:48:59.972Z,12.36
2023-04-29T01:52:05.555Z,12.31
2023-04-29T01:55:09.014Z,12.20
2023-04-29T01:58:24.311Z,12.15
2023-04-29T02:01:35.672Z,12.02
2023-04-29T02:04:40.997Z,12.10
2023-04-29T02:07:44.686Z,12.06
2023-04-29T02:10:56.530Z,12.08
2023-04-29T02:14:21.847Z,12.16
2023-04-29T02:17:28.385Z,12.15
2023-04-29T02:20:30.843Z,12.02
2023-04-29T02:23:35.981Z,12.07
2023-04-29T02:26:41.132Z,12.07
2023-04-29T02:29:48.198Z,12.14
2023-04-29T02:32:50.543Z,11.95
2023-04-29T02:35:52.780Z,12.03
2023-04-29T02:38:56.383Z,11.94
2023-04-29T02:42:01.776Z,12.03
2023-04-29T02:45:04.338Z,12.08
2023-04-29T02:48:11.757Z,12.00
2023-04-29T02:51:14.553Z,12.02
2023-04-29T02:54:19.531Z,12.03
2023-04-29T02:57:22.310Z,11.95
2023-04-29T03:00:24.594Z,11.83
2023-04-29T03:03:27.048Z,11.97
2023-04-29T03:06:32.642Z,11.92
2023-04-29T03:09:37.232Z,11.77
2023-04-29T03:12:39.678Z,11.88
2023-04-29T03:15:44.550Z,11.92
2023-04-29T03:18:46.994Z,12.04
2023-04-29T03:21:54.238Z,12.04
2023-04-29T03:24:58.949Z,11.96
2023-04-29T03:28:02.171Z,11.95
2023-04-29T03:31:05.854Z,11.90
2023-04-29T03:34:08.159Z,11.96
2023-04-29T03:37:16.571Z,11.88
2023-04-29T03:40:22.746Z,11.90
2023-04-29T03:43:28.722Z,11.94
2023-04-29T03:46:33.482Z,11.84
2023-04-29T03:49:37.648Z,11.92
2023-04-29T03:52:44.686Z,11.88
2023-04-29T03:55:52.963Z,11.77
2023-04-29T03:59:00.136Z,11.81
2023-04-29T04:02:02.571Z,11.87
2023-04-29T04:05:05.304Z,11.94
2023-04-29T04:08:11.242Z,11.94
2023-04-29T04:11:42.470Z,11.90
2023-04-29T04:14:44.788Z,11.95
2023-04-29T04:17:51.965Z,12.05
2023-04-29T04:20:57.013Z,12.06
2023-04-29T04:24:01.304Z,12.15
2023-04-29T04:27:08.519Z,11.83
2023-04-29T04:30:16.151Z,11.67
2023-04-29T04:33:23.318Z,11.60
2023-04-29T04:36:28.435Z,11.42
2023-04-29T04:39:30.959Z,11.44
2023-04-29T04:42:36.459Z,11.63
2023-04-29T04:45:38.980Z,11.65
2023-04-29T04:48:41.847Z,11.47
2023-04-29T04:51:48.122Z,11.41
2023-04-29T04:54:58.188Z,11.51
2023-04-29T04:58:02.837Z,11.59
2023-04-29T05:01:05.269Z,11.62
2023-04-29T05:04:12.680Z,11.65
2023-04-29T05:07:18.045Z,11.66
2023-04-29T05:10:38.320Z,11.57
2023-04-29T05:13:47.286Z,11.79
2023-04-29T05:16:49.660Z,11.80
2023-04-29T05:19:52.180Z,11.93
2023-04-29T05:22:54.675Z,11.92
2023-04-29T05:26:00.767Z,11.89
2023-04-29T05:29:05.495Z,11.92
2023-04-29T05:32:15.415Z,12.00
2023-04-29T05:35:17.801Z,12.12
2023-04-29T05:38:29.430Z,12.19
2023-04-29T05:41:49.573Z,12.23
2023-04-29T05:45:00.391Z,12.18
2023-04-29T05:48:10.441Z,12.17
2023-04-29T05:51:13.961Z,12.16
2023-04-29T05:54:19.391Z,12.08
2023-04-29T05:57:22.578Z,12.17
2023-04-29T06:00:24.812Z,12.14
2023-04-29T06:03:33.393Z,12.19
2023-04-29T06:07:00.384Z,12.23
2023-04-29T06:10:22.587Z,12.21
2023-04-29T06:13:26.189Z,12.35
2023-04-29T06:16:28.534Z,12.33
2023-04-29T06:19:34.111Z,12.32
2023-04-29T06:22:36.467Z,12.36
2023-04-29T06:25:40.955Z,12.14
2023-04-29T06:28:49.857Z,12.21
2023-04-29T06:31:52.524Z,12.23
2023-04-29T06:34:54.866Z,12.25
2023-04-29T06:38:19.673Z,12.36
2023-04-29T06:41:30.627Z,12.38
2023-04-29T06:44:37.907Z,12.39
2023-04-29T06:48:00.941Z,12.48
2023-04-29T06:51:16.184Z,12.39
2023-04-29T06:54:21.468Z,12.26
2023-04-29T06:57:28.252Z,12.38
2023-04-29T07:00:30.539Z,12.48
2023-04-29T07:03:32.982Z,12.56
2023-04-29T07:06:35.482Z,12.76
2023-04-29T07:09:37.823Z,12.39
2023-04-29T07:12:41.533Z,12.56
2023-04-29T07:15:51.138Z,12.64
2023-04-29T07:18:58.898Z,12.62
2023-04-29T07:22:04.088Z,12.68
2023-04-29T07:25:06.759Z,12.76
2023-04-29T07:28:09.264Z,12.73
2023-04-29T07:31:17.360Z,12.70
2023-04-29T07:34:22.463Z,12.60
2023-04-29T07:37:25.373Z,12.71
2023-04-29T07:40:29.877Z,12.79
2023-04-29T07:43:33.673Z,12.88
2023-04-29T07:46:38.352Z,12.88
2023-04-29T07:49:41.711Z,12.77
2023-04-29T07:52:47.051Z,12.87
2023-04-29T07:55:52.084Z,12.93
2023-04-29T07:59:00.150Z,12.99
2023-04-29T08:02:02.400Z,12.94
2023-04-29T08:05:05.682Z,13.11
2023-04-29T08:08:13.031Z,13.17
2023-04-29T08:11:22.176Z,13.30
2023-04-29T08:14:29.399Z,13.44
2023-04-29T08:17:37.758Z,13.60
2023-04-29T08:20:42.298Z,13.87
2023-04-29T08:23:47.370Z,13.75
2023-04-29T08:26:52.477Z,13.84
2023-04-29T08:29:59.759Z,13.86
2023-04-29T08:33:02.039Z,13.97
2023-04-29T08:36:04.688Z,13.94
2023-04-29T08:39:06.965Z,13.96
2023-04-29T08:42:12.025Z,13.99
2023-04-29T08:45:20.243Z,14.18
2023-04-29T08:48:23.106Z,14.15
2023-04-29T08:51:26.182Z,14.00
2023-04-29T08:54:28.772Z,14.11
2023-04-29T08:57:44.988Z,14.36
2023-04-29T09:00:48.430Z,14.32
2023-04-29T09:03:58.513Z,14.58
2023-04-29T09:07:05.513Z,14.74
2023-04-29T09:10:11.727Z,14.52
2023-04-29T09:13:30.191Z,14.45
2023-04-29T09:16:35.477Z,14.86
2023-04-29T09:19:37.892Z,14.74
2023-04-29T09:22:49.308Z,14.99
2023-04-29T09:25:57.705Z,15.15
2023-04-29T09:29:11.742Z,15.06
2023-04-29T09:32:20.679Z,15.07
2023-04-29T09:35:27.209Z,15.22
2023-04-29T09:38:31.822Z,15.06
2023-04-29T09:41:35.093Z,15.19
2023-04-29T09:44:41.892Z,14.85
2023-04-29T09:47:44.856Z,14.72
2023-04-29T09:51:04.674Z,15.01
2023-04-29T09:54:21.289Z,15.02
2023-04-29T09:57:42.087Z,14.95
2023-04-29T10:00:48.047Z,15.04
2023-04-29T10:03:54.963Z,15.40
2023-04-29T10:07:00.421Z,15.53
2023-04-29T10:10:05.430Z,15.34
2023-04-29T10:13:07.678Z,15.95
2023-04-29T10:16:28.289Z,16.38
2023-04-29T10:19:42.628Z,16.16
2023-04-29T10:22:48.041Z,16.60
2023-04-29T10:25:52.589Z,17.00
2023-04-29T10:29:03.352Z,16.58
2023-04-29T10:32:09.914Z,16.35
2023-04-29T10:35:16.103Z,16.30
2023-04-29T10:38:41.729Z,16.62
2023-04-29T10:41:48.434Z,16.61
2023-04-29T10:45:22.113Z,16.47
2023-04-29T10:48:26.724Z,16.60
2023-04-29T10:51:40.690Z,16.94
2023-04-29T10:55:02.867Z,16.15
2023-04-29T10:58:28.811Z,16.53
2023-04-29T11:02:06.315Z,17.06
2023-04-29T11:05:09.968Z,16.82
2023-04-29T11:08:23.170Z,17.00
2023-04-29T11:11:28.263Z,17.26
2023-04-29T11:14:40.838Z,17.51
2023-04-29T11:17:49.007Z,17.53
2023-04-29T11:21:06.379Z,17.45
2023-04-29T11:24:08.748Z,17.38
2023-04-29T11:27:12.316Z,17.58
2023-04-29T11:30:16.757Z,17.33
2023-04-29T11:33:22.465Z,17.29
2023-04-29T11:36:25.845Z,17.11
2023-04-29T11:39:31.206Z,17.22
2023-04-29T11:42:42.789Z,17.44
2023-04-29T11:45:50.737Z,17.78
2023-04-29T11:48:59.993Z,17.81
2023-04-29T11:52:04.680Z,17.65
2023-04-29T11:55:12.802Z,17.57
2023-04-29T11:58:18.480Z,17.79
2023-04-29T12:01:22.192Z,17.86
2023-04-29T12:04:24.777Z,18.08
2023-04-29T12:07:27.553Z,18.15
2023-04-29T12:10:32.031Z,18.15
2023-04-29T12:13:37.689Z,18.05
2023-04-29T12:16:40.530Z,17.94
2023-04-29T12:19:45.962Z,17.92
2023-04-29T12:22:50.430Z,17.93
2023-04-29T12:25:59.505Z,17.99
2023-04-29T12:29:01.797Z,18.03
2023-04-29T12:32:04.068Z,17.91
2023-04-29T12:35:16.444Z,18.11
2023-04-29T12:38:28.953Z,18.31
2023-04-29T12:41:42.231Z,18.50
2023-04-29T12:44:50.624Z,18.44
2023-04-29T12:47:55.171Z,18.02
2023-04-29T12:51:00.906Z,17.82
2023-04-29T12:54:04.739Z,17.91
2023-04-29T12:57:07.237Z,18.04
2023-04-29T13:00:12.789Z,18.12
2023-04-29T13:03:15.453Z,18.13
2023-04-29T13:06:18.133Z,17.91
2023-04-29T13:09:22.824Z,17.81
2023-04-29T13:12:25.053Z,17.92
2023-04-29T13:15:27.895Z,18.06
2023-04-29T13:18:31.366Z,18.20
2023-04-29T13:21:33.840Z,18.40
2023-04-29T13:24:38.333Z,18.67
2023-04-29T13:27:44.144Z,18.86
2023-04-29T13:30:48.705Z,18.88
2023-04-29T13:33:55.856Z,18.98
2023-04-29T13:36:58.115Z,19.00
2023-04-29T13:40:01.891Z,19.00
2023-04-29T13:43:07.157Z,19.10
2023-04-29T13:46:14.813Z,19.18
2023-04-29T13:49:42.248Z,19.28
2023-04-29T13:56:46.392Z,19.06
2023-04-29T14:02:24.785Z,18.90
2023-04-29T14:05:27.659Z,18.99
2023-04-29T14:08:29.969Z,19.10
2023-04-29T14:11:36.702Z,19.20
2023-04-29T14:14:41.484Z,19.23
2023-04-29T14:17:43.804Z,19.20
2023-04-29T14:20:46.331Z,19.19
2023-04-29T14:23:53.241Z,19.29
2023-04-29T14:27:02.125Z,19.35
2023-04-29T14:30:05.432Z,19.30
2023-04-29T14:33:08.230Z,19.07
2023-04-29T14:36:10.644Z,19.12
2023-04-29T14:39:14.077Z,18.77
2023-04-29T14:42:18.674Z,18.71
2023-04-29T14:45:21.080Z,18.80
2023-04-29T14:48:28.862Z,18.64
2023-04-29T14:51:33.455Z,18.82
2023-04-29T14:54:40.449Z,18.93
2023-04-29T14:57:47.636Z,18.80
2023-04-29T15:00:56.208Z,18.84
2023-04-29T15:04:01.409Z,18.95
2023-04-29T15:07:03.669Z,19.02
2023-04-29T15:10:09.688Z,18.96
2023-04-29T15:13:12.219Z,18.92
2023-04-29T15:16:17.348Z,18.76
2023-04-29T15:19:20.306Z,18.85
2023-04-29T15:22:24.973Z,18.91
2023-04-29T15:25:30.079Z,19.15
2023-04-29T15:28:34.541Z,19.05
2023-04-29T15:31:36.790Z,18.95
2023-04-29T15:34:41.378Z,18.77
2023-04-29T15:37:48.535Z,18.67
2023-04-29T15:40:50.800Z,18.79
2023-04-29T15:43:59.787Z,18.84
2023-04-29T15:47:04.276Z,18.76
2023-04-29T15:50:07.460Z,18.87
2023-04-29T15:53:14.607Z,18.75
2023-04-29T15:56:19.801Z,18.75
2023-04-29T15:59:24.649Z,18.71
2023-04-29T16:02:26.940Z,18.86
2023-04-29T16:05:31.700Z,18.76
2023-04-29T16:08:38.903Z,18.81
2023-04-29T16:11:41.982Z,18.79
2023-04-29T16:14:44.516Z,18.78
2023-04-29T16:17:46.863Z,18.66
2023-04-29T16:20:49.159Z,18.67
2023-04-29T16:23:51.842Z,18.67
2023-04-29T16:26:54.161Z,18.71
2023-04-29T16:29:57.300Z,18.68
2023-04-29T16:33:02.092Z,18.65
2023-04-29T16:36:05.367Z,18.65
2023-04-29T16:39:08.375Z,18.61
2023-04-29T16:42:10.985Z,18.34
2023-04-29T16:45:14.727Z,18.29
2023-04-29T16:48:19.333Z,18.28
2023-04-29T16:51:22.971Z,18.33
2023-04-29T16:54:25.379Z,18.41
2023-04-29T16:57:28.045Z,18.28
2023-04-29T17:00:30.404Z,18.25
2023-04-29T17:03:32.699Z,18.18
2023-04-29T17:06:38.380Z,18.26
2023-04-29T17:09:44.398Z,18.36
2023-04-29T17:12:46.799Z,18.20
2023-04-29T17:15:49.050Z,18.02
2023-04-29T17:18:51.371Z,18.09
2023-04-29T17:21:53.659Z,17.96
2023-04-29T17:24:58.270Z,17.90
2023-04-29T17:28:00.554Z,17.77
2023-04-29T17:31:06.331Z,17.53
2023-04-29T17:34:18.469Z,17.46
2023-04-29T17:37:25.020Z,17.20
2023-04-29T17:40:27.669Z,17.14
2023-04-29T17:43:35.369Z,17.05
2023-04-29T17:46:39.049Z,17.07
2023-04-29T17:49:41.390Z,17.06
2023-04-29T17:52:46.056Z,16.91
2023-04-29T17:55:50.785Z,16.85
2023-04-29T17:59:00.425Z,16.84
2023-04-29T18:02:04.954Z,16.77
2023-04-29T18:05:08.566Z,16.76
2023-04-29T18:08:18.805Z,16.68
2023-04-29T18:11:21.277Z,16.68
2023-04-29T18:14:23.611Z,16.57
2023-04-29T18:17:28.358Z,16.74
2023-04-29T18:20:31.055Z,16.60
2023-04-29T18:23:33.404Z,16.53
2023-04-29T18:26:35.834Z,16.49
2023-04-29T18:29:43.452Z,16.52
2023-04-29T18:32:49.011Z,16.52
2023-04-29T18:35:51.655Z,16.54
2023-04-29T18:38:54.152Z,16.53
2023-04-29T18:41:59.088Z,16.43
2023-04-29T18:45:06.328Z,16.46
2023-04-29T18:48:08.707Z,16.43
2023-04-29T18:51:11.435Z,16.41
2023-04-29T18:54:18.058Z,16.36
2023-04-29T18:57:22.831Z,16.29
2023-04-29T19:00:25.264Z,16.40
2023-04-29T19:03:27.610Z,16.23
2023-04-29T19:06:32.695Z,16.27
2023-04-29T19:09:37.316Z,16.12
2023-04-29T19:12:39.747Z,16.13
2023-04-29T19:15:42.082Z,16.09
2023-04-29T19:18:45.555Z,16.06
2023-04-29T19:21:50.792Z,16.14
2023-04-29T19:24:55.832Z,16.09
2023-04-29T19:28:03.041Z,16.14
2023-04-29T19:31:07.613Z,16.08
2023-04-29T19:34:12.246Z,16.11
2023-04-29T19:37:19.721Z,16.09
2023-04-29T19:40:22.037Z,16.15
2023-04-29T19:43:26.637Z,16.13
2023-04-29T19:46:29.040Z,16.05
2023-04-29T19:49:31.622Z,16.13
2023-04-29T19:52:33.950Z,16.10
2023-04-29T19:55:36.374Z,16.05
2023-04-29T19:58:38.904Z,16.04
2023-04-29T20:01:41.346Z,15.95
2023-04-29T20:04:43.787Z,16.02
2023-04-29T20:07:46.107Z,16.04
2023-04-29T20:10:51.642Z,16.07
2023-04-29T20:13:56.509Z,16.04
2023-04-29T20:17:00.505Z,16.09
2023-04-29T20:20:05.616Z,15.99
2023-04-29T20:23:10.734Z,15.97
2023-04-29T20:26:16.085Z,15.94
2023-04-29T20:29:24.908Z,15.92
2023-04-29T20:32:30.770Z,15.85
2023-04-29T20:35:33.055Z,15.75
2023-04-29T20:38:35.502Z,15.70
2023-04-29T20:41:40.319Z,15.66
2023-04-29T20:44:47.935Z,15.67
2023-04-29T20:47:53.007Z,15.70
2023-04-29T20:50:55.588Z,15.72
2023-04-29T20:54:00.047Z,15.67
2023-04-29T20:57:05.685Z,15.71
2023-04-29T21:00:11.463Z,15.74
2023-04-29T21:03:16.315Z,15.57
2023-04-29T21:06:18.631Z,15.49
2023-04-29T21:09:25.764Z,15.52
2023-04-29T21:12:28.002Z,15.57
2023-04-29T21:15:30.344Z,15.42
2023-04-29T21:18:32.675Z,15.42
2023-04-29T21:21:35.002Z,15.29
2023-04-29T21:24:41.929Z,15.31
2023-04-29T21:27:46.582Z,15.27
2023-04-29T21:30:51.090Z,15.24
2023-04-29T21:33:53.380Z,15.27
2023-04-29T21:36:55.694Z,15.19
2023-04-29T21:40:00.263Z,15.07
2023-04-29T21:43:02.838Z,15.07
2023-04-29T21:46:07.475Z,15.03
2023-04-29T21:49:10.110Z,15.00
2023-04-29T21:52:14.669Z,14.90
2023-04-29T21:55:21.613Z,15.04
2023-04-29T21:58:23.955Z,14.96
2023-04-29T22:01:39.969Z,15.06
2023-04-29T22:04:42.263Z,14.98
2023-04-29T22:07:45.892Z,15.04
2023-04-29T22:10:48.286Z,15.10
2023-04-29T22:13:52.894Z,15.11
2023-04-29T22:16:57.722Z,15.08
2023-04-29T22:20:02.759Z,15.07
2023-04-29T22:23:05.105Z,15.02
2023-04-29T22:26:07.440Z,14.87
2023-04-29T22:29:09.681Z,14.85
2023-04-29T22:32:11.951Z,14.80
2023-04-29T22:35:14.308Z,14.79
2023-04-29T22:38:16.550Z,14.71
2023-04-29T22:41:21.733Z,14.67
2023-04-29T22:44:23.940Z,14.79
2023-04-29T22:47:26.487Z,14.70
2023-04-29T22:50:28.742Z,14.67
2023-04-29T22:53:31.077Z,14.65
2023-04-29T22:56:33.672Z,14.61
2023-04-29T22:59:36.045Z,14.66
2023-04-29T23:02:40.988Z,14.57
2023-04-29T23:05:46.450Z,14.51
2023-04-29T23:08:49.271Z,14.50
2023-04-29T23:11:53.867Z,14.50
2023-04-29T23:14:58.474Z,14.48
2023-04-29T23:18:03.801Z,14.58
2023-04-29T23:21:08.757Z,14.53
2023-04-29T23:24:10.992Z,14.40
2023-04-29T23:27:13.250Z,14.53
2023-04-29T23:30:15.637Z,14.53
2023-04-29T23:33:17.938Z,14.49
2023-04-29T23:36:20.231Z,14.47
2023-04-29T23:39:22.441Z,14.52
2023-04-29T23:42:27.724Z,14.47
2023-04-29T23:45:30.026Z,14.49
2023-04-29T23:48:34.451Z,14.53
2023-04-29T23:51:38.179Z,14.47
2023-04-29T23:54:40.627Z,14.40
2023-04-29T23:57:42.909Z,14.39
